Time;durP1;ratioP1;P1;durP2;ratioP2;P2;SDS_P1;SDS_P2;PMS_P1;PMS_P2;Temp;Humidity;BMP_temperature;BMP_pressure;BME280_temperature;BME280_humidity;BME280_pressure;Samples;Min_cycle;Max_cycle;Signal;HPM_P1;HPM_P2
2022/06/13 00:00:11;;;;;;;14.60;7.07;;;;;;;23.97;30.31;98967.69;4977293;28;20144;-73
2022/06/13 00:02:40;;;;;;;14.23;5.25;;;;;;;23.89;30.62;98962.72;4993369;28;20495;-73
2022/06/13 00:05:08;;;;;;;8.35;4.25;;;;;;;23.98;30.34;98969.31;4976879;28;20456;-72
2022/06/13 00:07:34;;;;;;;9.90;4.20;;;;;;;23.72;30.34;98953.91;4976904;28;20053;-73
2022/06/13 00:10:00;;;;;;;8.70;3.33;;;;;;;23.80;29.91;98964.28;4977195;28;20463;-73
2022/06/13 00:12:26;;;;;;;4.40;2.90;;;;;;;23.84;29.83;98963.50;4976925;28;20046;-73
2022/06/13 00:14:52;;;;;;;8.63;3.00;;;;;;;23.78;29.86;98945.56;4960171;28;20076;-73
2022/06/13 00:17:18;;;;;;;6.07;2.90;;;;;;;23.68;30.33;98958.22;4992672;28;20566;-73
2022/06/13 00:19:44;;;;;;;10.50;3.05;;;;;;;23.66;30.28;98944.91;4944758;28;20129;-73
2022/06/13 00:22:09;;;;;;;8.68;2.80;;;;;;;23.60;29.98;98961.41;4944818;28;20144;-73
2022/06/13 00:24:36;;;;;;;6.10;2.70;;;;;;;23.59;29.61;98955.16;4976561;28;20050;-73
2022/06/13 00:27:02;;;;;;;4.55;2.30;;;;;;;23.64;29.79;98955.19;4993096;28;20053;-74
2022/06/13 00:29:28;;;;;;;7.45;2.63;;;;;;;23.36;30.18;98950.06;4975411;28;20042;-73
2022/06/13 00:31:54;;;;;;;9.73;3.10;;;;;;;23.56;30.26;98950.25;4944789;28;20049;-74
2022/06/13 00:34:20;;;;;;;6.13;2.40;;;;;;;23.51;30.30;98942.06;4976612;28;20042;-73
2022/06/13 00:36:46;;;;;;;11.57;2.58;;;;;;;23.49;30.28;98949.66;4959848;28;20424;-73
2022/06/13 00:39:12;;;;;;;10.70;3.55;;;;;;;23.56;30.16;98941.28;4944432;28;20081;-72
2022/06/13 00:41:40;;;;;;;8.65;2.92;;;;;;;23.54;30.35;98936.13;4992199;28;20184;-73
2022/06/13 00:44:31;;;;;;;7.35;2.92;;;;;;;23.81;29.87;98938.78;5008925;28;20050;-72
2022/06/13 00:46:57;;;;;;;12.77;2.85;;;;;;;23.26;30.69;98942.66;4976279;28;20093;-72
2022/06/13 00:49:45;;;;;;;6.50;2.78;;;;;;;23.40;30.37;98945.78;4944149;28;20463;-73
2022/06/13 00:52:43;;;;;;;11.70;2.83;;;;;;;23.43;30.50;98901.06;4992892;28;20081;-72
2022/06/13 00:55:14;;;;;;;4.60;2.60;;;;;;;23.57;30.67;98934.81;4959924;28;20073;-73
2022/06/13 00:57:40;;;;;;;6.00;2.70;;;;;;;23.32;31.12;98934.56;4976033;28;20038;-73
2022/06/13 01:00:11;;;;;;;6.55;2.65;;;;;;;23.35;31.07;98937.59;4991786;28;20116;-73
2022/06/13 01:02:43;;;;;;;5.53;2.97;;;;;;;23.47;30.77;98937.41;4959836;28;20042;-71
2022/06/13 01:05:09;;;;;;;9.45;2.83;;;;;;;23.28;31.35;98936.97;4959968;28;20053;-73
2022/06/13 01:07:35;;;;;;;7.65;2.63;;;;;;;23.25;31.08;98924.75;4992214;28;20046;-72
2022/06/13 01:12:50;;;;;;;5.57;2.50;;;;;;;23.31;31.40;98933.75;4975624;28;20487;-73
2022/06/13 01:15:27;;;;;;;6.10;2.72;;;;;;;23.57;31.14;98941.03;4975919;28;20384;-73
2022/06/13 01:17:59;;;;;;;5.82;2.95;;;;;;;23.71;31.25;98946.84;4975517;28;20092;-73
2022/06/13 01:20:45;;;;;;;12.15;2.72;;;;;;;23.75;30.87;98939.81;4975627;28;20475;-72
2022/06/13 01:23:32;;;;;;;8.90;2.65;;;;;;;23.63;31.23;98950.03;5007879;28;20042;-72
2022/06/13 01:26:04;;;;;;;7.55;2.78;;;;;;;23.42;31.53;98943.59;4975338;28;20042;-73
2022/06/13 01:28:48;;;;;;;8.38;3.00;;;;;;;23.43;31.49;98947.97;4991690;28;20180;-73
2022/06/13 01:31:20;;;;;;;7.80;2.88;;;;;;;23.64;31.31;98957.09;4975570;28;20046;-73
2022/06/13 01:34:06;;;;;;;10.98;2.83;;;;;;;23.51;31.46;98930.41;4975895;28;20066;-73
2022/06/13 01:36:35;;;;;;;6.18;2.60;;;;;;;23.56;31.92;98946.69;4958853;28;20509;-72
2022/06/13 01:39:43;;;;;;;10.30;2.95;;;;;;;23.56;31.82;98946.69;4991588;28;20049;-73
2022/06/13 01:42:26;;;;;;;7.30;2.45;;;;;;;23.58;32.11;98949.97;4916689;29;20051;-70
2022/06/13 01:45:09;;;;;;;5.10;2.60;;;;;;;23.43;32.14;98934.41;4987859;28;20065;-72
2022/06/13 01:47:57;;;;;;;7.90;2.75;;;;;;;23.70;31.96;98939.78;4958893;28;20042;-72
2022/06/13 01:50:41;;;;;;;4.45;2.50;;;;;;;23.76;31.87;98938.75;4942874;28;20056;-73
2022/06/13 01:53:12;;;;;;;6.80;2.80;;;;;;;23.99;31.56;98947.34;4991337;28;20049;-72
2022/06/13 01:56:04;;;;;;;11.48;2.92;;;;;;;24.13;32.06;98948.53;4974847;28;20080;-72
2022/06/13 01:58:57;;;;;;;9.23;3.20;;;;;;;23.93;31.92;98947.53;5007265;28;20057;-73
2022/06/13 02:01:34;;;;;;;11.88;3.30;;;;;;;23.99;32.14;98938.41;4974647;28;20046;-73
2022/06/13 02:04:12;;;;;;;7.10;3.15;;;;;;;24.04;31.79;98935.72;5007264;28;20042;-72
2022/06/13 02:06:43;;;;;;;5.07;2.50;;;;;;;24.08;31.77;98936.84;4958436;28;20578;-73
2022/06/13 02:09:16;;;;;;;5.03;2.55;;;;;;;24.19;31.87;98933.09;4990919;28;20492;-72
2022/06/13 02:11:47;;;;;;;6.15;2.95;;;;;;;24.00;32.08;98915.63;4959003;28;20042;-73
2022/06/13 02:14:35;;;;;;;6.20;2.75;;;;;;;24.14;31.92;98936.59;4991367;28;20047;-73
2022/06/13 02:17:14;;;;;;;9.82;3.15;;;;;;;24.19;32.20;98936.63;4958265;28;20053;-72
2022/06/13 02:19:45;;;;;;;7.65;3.55;;;;;;;24.23;32.26;98937.75;4974708;28;20527;-72
2022/06/13 02:22:34;;;;;;;4.53;3.03;;;;;;;24.12;32.11;98930.63;4974933;28;20141;-72
2022/06/13 02:25:10;;;;;;;9.82;3.42;;;;;;;23.97;32.39;98929.72;4974463;28;20046;-73
2022/06/13 02:27:38;;;;;;;11.15;3.35;;;;;;;24.08;32.35;98934.13;4990759;28;20054;-73
2022/06/13 02:30:10;;;;;;;11.35;3.50;;;;;;;24.23;32.25;98937.75;4974298;28;20042;-73
2022/06/13 02:32:59;;;;;;;10.27;3.80;;;;;;;24.31;31.96;98933.72;4958326;28;20053;-74
2022/06/13 02:35:29;;;;;;;13.07;4.25;;;;;;;24.03;32.28;98906.97;4941952;28;20050;-74
2022/06/13 02:38:10;;;;;;;10.65;4.43;;;;;;;24.34;32.18;98920.44;5006534;28;20053;-72
2022/06/13 02:40:44;;;;;;;15.98;4.50;;;;;;;24.41;32.21;98912.06;4974179;28;20054;-73
2022/06/13 02:43:20;;;;;;;9.73;4.40;;;;;;;24.69;31.86;98925.25;4990202;28;20073;-73
2022/06/13 02:46:13;;;;;;;9.63;4.65;;;;;;;24.79;31.72;98928.81;4958525;28;20046;-72
2022/06/13 02:49:14;;;;;;;12.13;4.38;;;;;;;24.70;31.71;98921.44;4988449;28;20057;-73
2022/06/13 02:51:45;;;;;;;9.48;4.00;;;;;;;24.76;31.79;98920.38;4960114;28;20066;-72
2022/06/13 02:54:28;;;;;;;7.88;3.33;;;;;;;24.68;31.68;98912.72;4957675;28;20046;-73
2022/06/13 02:57:25;;;;;;;8.75;3.85;;;;;;;24.47;32.17;98921.84;4958052;28;20508;-73
2022/06/13 02:59:53;;;;;;;16.70;3.78;;;;;;;23.84;32.72;98897.59;4974187;28;20147;-73
2022/06/13 03:02:41;;;;;;;14.02;2.85;;;;;;;24.15;32.91;98908.41;4974179;28;20042;-74
2022/06/13 03:05:33;;;;;;;6.47;3.28;;;;;;;24.15;33.02;98911.13;4957962;28;20493;-73
2022/06/13 03:08:23;;;;;;;7.40;2.90;;;;;;;24.10;33.38;98913.78;4955898;28;20054;-73
2022/06/13 03:11:16;;;;;;;12.27;2.92;;;;;;;24.00;33.24;98908.28;5006656;28;20085;-74
2022/06/13 03:13:45;;;;;;;8.00;3.75;;;;;;;23.99;33.49;98903.97;5004412;28;20046;-72
2022/06/13 03:16:25;;;;;;;8.65;3.30;;;;;;;24.20;33.10;98913.84;4957552;28;20467;-72
2022/06/13 03:18:56;;;;;;;6.87;3.23;;;;;;;24.11;33.33;98899.13;4957889;28;20060;-73
2022/06/13 03:21:38;;;;;;;9.23;3.15;;;;;;;24.01;33.50;98912.66;4957951;28;20281;-73
2022/06/13 03:25:05;;;;;;;5.72;3.22;;;;;;;24.07;33.80;98917.03;4941723;28;20455;-71
2022/06/13 03:27:38;;;;;;;7.45;3.10;;;;;;;24.14;33.57;98919.53;4924873;28;20472;-73
2022/06/13 03:30:14;;;;;;;7.57;3.22;;;;;;;23.98;33.96;98923.22;4921694;28;20046;-72
2022/06/13 03:33:39;;;;;;;11.40;3.33;;;;;;;23.86;33.70;98906.28;4942144;28;20054;-73
2022/06/13 03:35:32;;;;;;;7.15;3.25;;;;;;;24.09;33.90;98914.06;4976102;28;20423;-71
2022/06/13 03:37:58;;;;;;;6.03;3.13;;;;;;;24.14;33.84;98916.81;4990034;28;20043;-73
2022/06/13 03:40:26;;;;;;;8.70;3.40;;;;;;;24.34;33.26;98914.22;4990452;28;20455;-74
2022/06/13 03:43:05;;;;;;;10.68;3.50;;;;;;;24.48;33.58;98923.47;4990094;28;20512;-74
2022/06/13 03:45:36;;;;;;;10.98;3.72;;;;;;;24.48;33.46;98923.47;4991066;28;20046;-74
2022/06/13 03:48:27;;;;;;;17.92;3.72;;;;;;;24.48;33.70;98905.31;4973782;28;20042;-73
2022/06/13 03:50:57;;;;;;;10.00;3.65;;;;;;;24.30;33.84;98883.22;4990120;28;20089;-73
2022/06/13 03:53:27;;;;;;;14.57;3.80;;;;;;;24.51;33.88;98906.66;4958111;28;20045;-72
2022/06/13 03:56:03;;;;;;;12.13;3.50;;;;;;;24.59;33.39;98887.16;4957834;28;20046;-74
2022/06/13 03:58:38;;;;;;;9.57;3.30;;;;;;;24.76;33.51;98912.22;4989779;28;20046;-73
2022/06/13 04:01:17;;;;;;;7.35;3.35;;;;;;;24.88;33.63;98897.31;4973907;28;20061;-73
2022/06/13 04:03:43;;;;;;;10.20;3.60;;;;;;;24.81;33.68;98890.50;4975058;28;20162;-74
2022/06/13 04:06:29;;;;;;;13.63;3.60;;;;;;;25.29;33.31;98900.94;4977458;28;20133;-72
2022/06/13 04:08:55;;;;;;;11.60;3.70;;;;;;;25.23;33.20;98880.28;4945092;28;20050;-73
2022/06/13 04:11:30;;;;;;;13.63;3.80;;;;;;;25.68;32.92;98898.53;4976776;28;20042;-74
2022/06/13 04:14:27;;;;;;;11.88;3.92;;;;;;;25.69;33.24;98892.81;4976869;28;20073;-76
2022/06/13 04:17:21;;;;;;;11.77;3.88;;;;;;;25.75;33.54;98880.84;4993301;28;20050;-73
2022/06/13 04:19:55;;;;;;;14.60;3.72;;;;;;;25.76;33.75;98892.50;4976861;28;20061;-73
2022/06/13 04:22:48;;;;;;;15.23;4.45;;;;;;;25.82;33.95;98894.13;4960529;28;20046;-73
2022/06/13 04:25:30;;;;;;;11.07;4.15;;;;;;;25.80;34.37;98888.97;4983106;28;20571;-73
2022/06/13 04:28:11;;;;;;;14.45;4.70;;;;;;;25.76;34.12;98885.19;4992818;28;20507;-72
2022/06/13 04:30:37;;;;;;;22.50;4.90;;;;;;;26.12;33.98;98883.25;4960351;28;20113;-74
2022/06/13 04:33:09;;;;;;;16.67;4.75;;;;;;;26.14;33.99;98876.41;4976517;28;20077;-73
2022/06/13 04:35:35;;;;;;;11.48;3.95;;;;;;;26.32;33.89;98897.59;4992445;28;20074;-74
2022/06/13 04:38:05;;;;;;;10.27;4.25;;;;;;;26.51;33.74;98881.44;4976637;28;20046;-74
2022/06/13 04:40:34;;;;;;;13.00;4.13;;;;;;;26.63;33.78;98882.00;4944221;28;20042;-73
2022/06/13 04:43:04;;;;;;;15.40;4.18;;;;;;;26.78;34.11;98884.63;4976142;28;20054;-73
2022/06/13 04:45:48;;;;;;;13.77;3.38;;;;;;;26.98;33.63;98880.97;4960315;28;20037;-73
2022/06/13 04:48:15;;;;;;;9.57;3.70;;;;;;;27.02;33.69;98890.19;4993643;28;20050;-73
2022/06/13 04:50:47;;;;;;;11.18;3.28;;;;;;;27.28;32.81;98892.50;4976239;28;20042;-73
2022/06/13 04:53:17;;;;;;;7.32;3.25;;;;;;;27.38;32.94;98899.81;4976247;28;20050;-73
2022/06/13 04:55:46;;;;;;;7.15;3.58;;;;;;;27.55;32.66;98890.13;4976762;28;20050;-73
2022/06/13 04:58:38;;;;;;;6.95;3.38;;;;;;;27.58;32.45;98886.00;4993327;28;20069;-73
2022/06/13 05:01:12;;;;;;;18.30;3.45;;;;;;;27.70;32.29;98894.63;4973553;28;20058;-73
2022/06/13 05:03:41;;;;;;;7.38;3.42;;;;;;;27.89;32.13;98906.50;4993753;28;20046;-73
2022/06/13 05:06:36;;;;;;;7.88;3.60;;;;;;;28.15;32.05;98882.47;4992374;28;20046;-73
2022/06/13 05:09:23;;;;;;;8.30;3.45;;;;;;;28.25;32.00;98907.75;4988179;28;20149;-74
2022/06/13 05:11:52;;;;;;;5.75;3.53;;;;;;;28.20;31.93;98913.25;4976145;28;20050;-74
2022/06/13 05:14:28;;;;;;;10.35;3.50;;;;;;;28.22;31.64;98910.22;4975959;28;20141;-71
2022/06/13 05:17:00;;;;;;;9.63;3.30;;;;;;;28.03;32.58;98883.69;4991149;28;20053;-74
2022/06/13 05:19:35;;;;;;;8.05;3.70;;;;;;;27.83;32.80;98899.44;4975814;28;20050;-73
2022/06/13 05:22:39;;;;;;;10.13;3.20;;;;;;;28.01;32.59;98901.47;4943425;28;20194;-74
2022/06/13 05:25:22;;;;;;;11.63;3.70;;;;;;;27.91;32.40;98907.00;4989568;28;20066;-73
2022/06/13 05:27:48;;;;;;;6.28;3.10;;;;;;;27.58;33.01;98903.19;4991845;28;20550;-72
2022/06/13 05:30:15;;;;;;;8.55;3.72;;;;;;;27.49;33.83;98906.81;4959392;28;20042;-73
2022/06/13 05:32:41;;;;;;;8.85;3.42;;;;;;;27.59;33.41;98899.34;4975576;28;20458;-72
2022/06/13 05:35:16;;;;;;;8.27;3.25;;;;;;;27.82;33.47;98901.34;4943376;28;20054;-73
2022/06/13 05:37:42;;;;;;;7.88;3.08;;;;;;;27.82;33.35;98895.06;4975424;28;20074;-73
2022/06/13 05:40:19;;;;;;;7.32;3.42;;;;;;;27.97;33.06;98903.94;4975206;28;20046;-73
2022/06/13 05:42:46;;;;;;;5.95;3.50;;;;;;;28.02;33.32;98908.53;4943100;28;20372;-73
2022/06/13 05:45:18;;;;;;;8.25;3.63;;;;;;;28.25;33.17;98901.47;4975284;28;20042;-73
2022/06/13 05:47:46;;;;;;;10.60;3.42;;;;;;;28.48;32.50;98901.50;4991220;28;20042;-73
2022/06/13 05:50:17;;;;;;;5.60;3.10;;;;;;;28.54;33.19;98900.31;4974907;28;20137;-73
2022/06/13 05:52:43;;;;;;;5.53;2.97;;;;;;;28.51;32.49;98911.84;4991342;28;20045;-73
2022/06/13 05:55:10;;;;;;;6.82;3.50;;;;;;;28.58;32.48;98912.31;4992442;28;20046;-73
2022/06/13 05:57:38;;;;;;;12.85;3.72;;;;;;;28.65;32.43;98901.00;4992149;28;20112;-73
2022/06/13 06:00:07;;;;;;;9.75;3.72;;;;;;;28.72;32.67;98906.94;4990755;28;20065;-74
2022/06/13 06:02:38;;;;;;;9.15;3.50;;;;;;;28.70;32.53;98909.97;4991194;28;20046;-73
2022/06/13 06:05:05;;;;;;;4.95;2.92;;;;;;;28.73;32.52;98906.66;4974693;28;20133;-74
2022/06/13 06:07:32;;;;;;;6.35;3.70;;;;;;;28.77;32.72;98885.81;4942726;28;20045;-73
2022/06/13 06:09:58;;;;;;;8.63;3.83;;;;;;;29.11;32.34;98894.66;4974960;28;20038;-72
2022/06/13 06:12:24;;;;;;;7.63;3.55;;;;;;;29.16;32.54;98893.78;4974870;28;20049;-73
2022/06/13 06:14:50;;;;;;;7.32;3.47;;;;;;;29.22;32.48;98885.19;4958744;28;20427;-73
2022/06/13 06:17:16;;;;;;;13.07;4.00;;;;;;;29.36;32.12;98902.50;4958409;28;20056;-72
2022/06/13 06:19:42;;;;;;;7.25;3.40;;;;;;;29.58;31.61;98888.19;4974437;28;20068;-73
2022/06/13 06:22:07;;;;;;;15.68;3.75;;;;;;;29.62;31.69;98870.03;4990888;28;20145;-74
2022/06/13 06:24:33;;;;;;;10.68;3.30;;;;;;;30.15;31.25;98887.72;4974783;28;20093;-77
2022/06/13 06:26:59;;;;;;;6.60;3.67;;;;;;;30.63;30.52;98891.69;4957458;28;20042;-73
2022/06/13 06:29:25;;;;;;;8.45;3.58;;;;;;;31.00;29.98;98887.88;4974518;28;20044;-73
2022/06/13 06:31:51;;;;;;;11.55;3.80;;;;;;;31.34;29.64;98880.00;4942554;28;20120;-73
2022/06/13 06:34:17;;;;;;;6.95;3.35;;;;;;;31.75;28.95;98883.38;4942378;28;20078;-73
2022/06/13 06:36:43;;;;;;;8.60;3.33;;;;;;;31.92;29.13;98894.47;4990318;28;20116;-73
2022/06/13 06:39:09;;;;;;;4.30;2.88;;;;;;;32.29;28.37;98888.50;4942055;28;20034;-74
2022/06/13 06:41:34;;;;;;;8.65;3.25;;;;;;;32.34;28.58;98899.34;4942255;28;20050;-77
2022/06/13 06:44:00;;;;;;;18.60;3.58;;;;;;;32.39;28.01;98902.00;4990328;28;20101;-74
2022/06/13 06:46:26;;;;;;;10.32;3.20;;;;;;;32.47;27.99;98901.22;4974219;28;20574;-74
2022/06/13 06:48:52;;;;;;;9.93;3.30;;;;;;;32.63;27.96;98887.81;4958109;28;20050;-73
2022/06/13 06:51:18;;;;;;;7.55;3.15;;;;;;;33.24;27.45;98881.31;4942351;28;20073;-73
2022/06/13 07:01:58;;;;;;;4.30;2.80;;;;;;;32.60;27.25;98883.78;4990478;28;20524;-73
2022/06/13 07:04:24;;;;;;;7.57;3.33;;;;;;;32.52;27.41;98887.31;4958000;28;20042;-74
2022/06/13 07:06:52;;;;;;;8.60;3.28;;;;;;;32.68;27.32;98883.00;4957901;28;20192;-74
2022/06/13 07:09:19;;;;;;;8.40;2.88;;;;;;;33.08;26.43;98880.97;4942951;28;20112;-74
2022/06/13 07:11:54;;;;;;;7.50;3.15;;;;;;;33.32;26.00;98894.28;4990589;28;20085;-74
2022/06/13 07:14:25;;;;;;;7.30;3.30;;;;;;;33.81;25.64;98883.53;4959428;28;20042;-74
2022/06/13 07:16:54;;;;;;;6.80;3.25;;;;;;;33.82;25.46;98884.34;4973743;28;20105;-73
2022/06/13 07:19:20;;;;;;;4.63;3.20;;;;;;;33.82;25.33;98892.63;4942286;28;20042;-75
2022/06/13 07:21:46;;;;;;;5.80;3.28;;;;;;;33.57;25.78;98885.19;4989880;28;20042;-74
2022/06/13 07:24:13;;;;;;;7.82;3.13;;;;;;;33.31;26.29;98884.38;4941617;28;20468;-74
2022/06/13 07:26:39;;;;;;;9.82;3.50;;;;;;;33.20;26.51;98891.38;4989841;28;20046;-74
2022/06/13 07:29:05;;;;;;;5.72;3.10;;;;;;;33.02;26.72;98856.69;4973848;28;20050;-74
2022/06/13 07:31:40;;;;;;;9.55;3.75;;;;;;;33.09;27.02;98879.06;4989881;28;20061;-74
2022/06/13 07:34:18;;;;;;;5.25;3.30;;;;;;;32.89;27.00;98874.19;4990303;28;20069;-73
2022/06/13 07:36:44;;;;;;;5.85;2.80;;;;;;;33.23;26.98;98877.75;4973517;28;20559;-74
2022/06/13 07:39:14;;;;;;;11.15;3.20;;;;;;;33.48;26.87;98901.75;4944149;28;20493;-73
2022/06/13 07:41:40;;;;;;;11.85;3.40;;;;;;;33.47;26.46;98882.78;4993569;28;20408;-73
2022/06/13 07:44:07;;;;;;;9.73;3.17;;;;;;;33.31;26.72;98882.44;4977802;28;20058;-73
2022/06/13 07:46:36;;;;;;;9.30;3.00;;;;;;;33.33;26.87;98887.63;4993697;28;20056;-72
2022/06/13 07:49:02;;;;;;;3.45;2.63;;;;;;;32.94;26.40;98887.78;4977588;28;20057;-73
2022/06/13 07:51:31;;;;;;;5.38;2.55;;;;;;;33.25;25.86;98891.19;4977261;28;20046;-73
2022/06/13 07:53:57;;;;;;;4.40;2.90;;;;;;;33.57;25.80;98890.72;4945663;28;20057;-73
2022/06/13 07:56:27;;;;;;;6.50;3.35;;;;;;;33.80;25.70;98883.84;4961238;28;20042;-73
2022/06/13 07:58:53;;;;;;;3.53;2.70;;;;;;;34.02;25.22;98892.75;4977019;28;20049;-73
2022/06/13 08:01:20;;;;;;;12.25;2.90;;;;;;;34.33;24.47;98853.06;4976787;28;20054;-73
2022/06/13 08:03:46;;;;;;;16.98;2.80;;;;;;;34.47;24.76;98881.25;4977065;28;20177;-73
2022/06/13 08:06:12;;;;;;;7.57;2.65;;;;;;;34.33;24.72;98889.72;4944824;28;20042;-73
2022/06/13 08:08:40;;;;;;;6.95;2.70;;;;;;;33.98;25.46;98879.97;4960738;28;20137;-73
2022/06/13 08:11:08;;;;;;;10.27;2.60;;;;;;;33.89;24.92;98887.47;4945508;28;20058;-73
2022/06/13 08:13:37;;;;;;;20.50;3.38;;;;;;;33.78;25.44;98877.88;4976831;28;20053;-73
2022/06/13 08:16:03;;;;;;;11.80;3.05;;;;;;;33.60;25.89;98882.59;4976754;28;20042;-73
2022/06/13 08:18:29;;;;;;;10.60;2.45;;;;;;;33.35;25.96;98879.84;4993076;28;20041;-73
2022/06/13 08:20:55;;;;;;;5.90;2.97;;;;;;;33.38;26.45;98859.94;4993414;28;20504;-73
2022/06/13 08:23:22;;;;;;;4.07;2.25;;;;;;;33.65;24.22;98865.09;4944641;28;20049;-74
2022/06/13 08:25:49;;;;;;;2.63;2.40;;;;;;;33.38;24.40;98851.69;4976842;28;20050;-73
2022/06/13 08:28:15;;;;;;;8.95;2.35;;;;;;;33.72;23.82;98868.19;4960781;28;20050;-73
2022/06/13 08:30:51;;;;;;;5.65;2.30;;;;;;;34.00;23.73;98852.88;4960408;28;20056;-76
2022/06/13 08:33:17;;;;;;;11.80;2.45;;;;;;;34.16;23.70;98852.03;4976497;28;20049;-73
2022/06/13 08:35:43;;;;;;;4.60;2.70;;;;;;;34.38;23.71;98853.72;4960209;28;20046;-73
2022/06/13 08:38:09;;;;;;;8.05;1.90;;;;;;;34.65;23.59;98835.88;4944905;28;20068;-73
2022/06/13 08:40:54;;;;;;;7.35;2.60;;;;;;;34.91;23.23;98840.09;4992549;28;20442;-73
2022/06/13 08:43:31;;;;;;;7.95;2.50;;;;;;;34.67;23.63;98850.97;4960228;28;20133;-73
2022/06/13 08:46:12;;;;;;;5.00;2.15;;;;;;;35.35;22.73;98844.94;4944463;28;20519;-72
2022/06/13 08:48:44;;;;;;;6.80;2.30;;;;;;;36.25;21.55;98839.41;4992534;28;20456;-73
2022/06/13 08:51:17;;;;;;;7.43;2.33;;;;;;;36.41;21.04;98824.56;4991769;28;20077;-73
2022/06/13 08:53:49;;;;;;;4.28;2.35;;;;;;;36.25;21.35;98843.00;4992525;28;20144;-74
2022/06/13 08:56:16;;;;;;;6.75;2.38;;;;;;;35.77;22.39;98837.38;5008619;28;20061;-72
2022/06/13 08:58:53;;;;;;;8.10;2.17;;;;;;;35.42;22.60;98825.88;4976378;28;20065;-76
2022/06/13 09:01:26;;;;;;;5.63;2.20;;;;;;;34.83;23.46;98832.66;4992550;28;20187;-72
2022/06/13 09:04:26;;;;;;;17.48;2.97;;;;;;;34.52;23.41;98826.69;4960192;28;20054;-73
2022/06/13 09:06:57;;;;;;;13.30;2.60;;;;;;;33.98;23.82;98836.66;4951633;28;20046;-73
2022/06/13 09:09:24;;;;;;;;;;;;;;;33.96;24.31;98821.63;4993151;28;20046;-74
2022/06/13 09:11:53;;;;;;;8.15;2.70;;;;;;;33.88;24.55;98816.91;4976109;28;19922;-73
2022/06/13 09:14:34;;;;;;;5.85;2.42;;;;;;;34.13;24.30;98821.53;4976157;28;20052;-74
2022/06/13 09:17:15;;;;;;;12.30;2.40;;;;;;;34.08;23.22;98822.53;4959831;28;20054;-73
2022/06/13 09:19:49;;;;;;;6.97;2.22;;;;;;;34.09;23.12;98826.91;4959942;28;20050;-73
2022/06/13 09:23:12;;;;;;;10.73;2.25;;;;;;;33.95;22.74;98815.28;4959356;28;20049;-74
2022/06/13 09:25:59;;;;;;;3.42;2.10;;;;;;;33.40;23.75;98795.16;4901072;29;20044;-73
2022/06/13 09:28:46;;;;;;;4.00;2.20;;;;;;;33.06;24.36;98814.44;4932667;29;20052;-73
2022/06/13 09:31:22;;;;;;;3.83;1.92;;;;;;;32.77;24.43;98806.00;4952360;28;20057;-77
2022/06/13 09:34:12;;;;;;;8.18;2.40;;;;;;;32.15;25.24;98821.06;4943580;28;20116;-73
2022/06/13 09:36:46;;;;;;;10.75;2.30;;;;;;;32.16;25.39;98828.16;4943399;28;20050;-73
2022/06/13 09:39:12;;;;;;;11.32;2.38;;;;;;;32.07;25.75;98808.91;4959762;28;20046;-74
2022/06/13 09:41:52;;;;;;;16.60;2.70;;;;;;;32.37;25.79;98810.78;4975702;28;20084;-73
2022/06/13 09:44:24;;;;;;;8.45;2.60;;;;;;;32.14;26.41;98817.47;4975541;28;20076;-73
2022/06/13 09:47:03;;;;;;;4.47;2.28;;;;;;;32.06;26.30;98814.72;4959133;28;20112;-73
2022/06/13 09:49:52;;;;;;;4.70;2.30;;;;;;;32.07;26.01;98825.38;4991319;28;20053;-73
2022/06/13 09:52:43;;;;;;;8.68;2.30;;;;;;;32.17;25.73;98827.84;4992302;28;20046;-73
2022/06/13 09:55:23;;;;;;;3.67;2.03;;;;;;;31.71;25.47;98808.22;4959073;28;20052;-73
2022/06/13 09:58:04;;;;;;;3.55;2.20;;;;;;;31.89;25.56;98817.38;4992461;28;20046;-72
2022/06/13 10:00:39;;;;;;;9.07;2.20;;;;;;;32.08;25.53;98807.75;4958577;28;20163;-73
2022/06/13 10:03:30;;;;;;;5.50;2.13;;;;;;;32.22;25.63;98811.22;4958677;28;20104;-74
2022/06/13 10:06:14;;;;;;;13.52;2.50;;;;;;;31.92;25.64;98823.03;4959236;28;20046;-73
2022/06/13 10:08:51;;;;;;;8.07;2.17;;;;;;;32.33;24.79;98823.53;4958515;28;20137;-73
2022/06/13 10:11:34;;;;;;;5.03;2.10;;;;;;;31.89;25.21;98829.16;4942584;28;20057;-76
2022/06/13 10:14:16;;;;;;;6.53;2.35;;;;;;;32.12;25.17;98829.94;4974716;28;20046;-73
2022/06/13 10:16:54;;;;;;;15.07;2.60;;;;;;;31.74;25.57;98795.78;4974542;28;20072;-73
2022/06/13 10:19:36;;;;;;;10.35;2.78;;;;;;;32.94;24.62;98808.78;4942131;28;20038;-76
2022/06/13 10:22:15;;;;;;;7.75;2.83;;;;;;;32.85;24.73;98804.38;4958260;28;20038;-73
2022/06/13 10:24:55;;;;;;;10.75;2.40;;;;;;;32.43;24.70;98790.25;4990475;28;20050;-72
2022/06/13 10:27:39;;;;;;;4.65;2.35;;;;;;;32.30;25.21;98790.38;4973947;28;20511;-73
2022/06/13 10:30:26;;;;;;;6.07;2.40;;;;;;;32.90;24.91;98796.00;4957832;28;20284;-74
2022/06/13 10:33:00;;;;;;;6.88;2.00;;;;;;;33.22;24.44;98795.50;4942134;28;20046;-73
2022/06/13 10:35:52;;;;;;;4.80;1.80;;;;;;;33.32;22.08;98806.19;4990308;28;20188;-73
2022/06/13 10:38:35;;;;;;;3.90;1.65;;;;;;;32.85;22.12;98787.88;4980278;28;20058;-76
2022/06/13 10:41:01;;;;;;;7.78;1.80;;;;;;;32.81;22.31;98798.72;4974318;28;20088;-73
2022/06/13 10:43:27;;;;;;;4.38;1.83;;;;;;;32.72;22.91;98766.84;4942235;28;20066;-73
2022/06/13 10:45:53;;;;;;;5.07;2.20;;;;;;;32.39;23.83;98786.53;4942308;28;20488;-73
2022/06/13 10:48:30;;;;;;;7.15;1.98;;;;;;;32.54;23.62;98779.75;4942576;28;20587;-74
2022/06/13 10:51:00;;;;;;;7.18;2.10;;;;;;;33.17;23.02;98787.44;4975611;28;20088;-73
2022/06/13 10:53:44;;;;;;;5.80;2.10;;;;;;;33.08;22.76;98786.59;4943284;28;20096;-73
2022/06/13 10:56:17;;;;;;;7.35;1.92;;;;;;;32.91;22.71;98786.59;4975188;28;20050;-73
2022/06/13 10:58:55;;;;;;;6.20;2.03;;;;;;;32.70;23.17;98805.69;4974661;28;20416;-73
2022/06/13 11:01:30;;;;;;;7.25;2.05;;;;;;;32.72;23.67;98781.41;5006405;28;20497;-73
2022/06/13 11:04:05;;;;;;;13.57;2.35;;;;;;;33.43;22.61;98772.47;4941858;28;20054;-73
2022/06/13 11:06:57;;;;;;;12.98;2.60;;;;;;;33.95;22.03;98781.44;5006518;28;20047;-73
2022/06/13 11:09:27;;;;;;;11.57;2.60;;;;;;;33.32;22.97;98762.13;4957509;28;20047;-74
2022/06/13 11:12:00;;;;;;;3.67;2.10;;;;;;;33.66;22.71;98775.84;4957745;28;20046;-73
2022/06/13 11:22:37;;;;;;;6.63;2.40;;;;;;;33.93;22.50;98779.00;4995196;28;20463;-75
2022/06/13 11:23:06;;;;;;;9.38;2.33;;;;;;;34.35;21.40;98785.44;4982492;28;20431;-74
2022/06/13 11:25:33;;;;;;;11.15;2.30;;;;;;;33.76;21.74;98779.03;4964118;28;20046;-75
2022/06/13 11:28:11;;;;;;;5.53;2.13;;;;;;;33.03;22.43;98701.50;4996189;28;20196;-74
2022/06/13 11:30:42;;;;;;;3.42;2.40;;;;;;;33.41;22.79;98762.94;4964114;28;20054;-74
2022/06/13 11:33:30;;;;;;;5.57;2.08;;;;;;;33.64;22.36;98776.19;5012363;28;20042;-74
2022/06/13 11:36:00;;;;;;;6.70;2.22;;;;;;;32.94;23.13;98784.03;4997350;28;20543;-73
2022/06/13 11:39:01;;;;;;;8.85;2.40;;;;;;;31.95;24.36;98772.97;4947981;28;20043;-73
2022/06/13 11:41:26;;;;;;;5.95;2.47;;;;;;;31.26;25.65;98775.63;5012973;28;20042;-73
2022/06/13 11:44:12;;;;;;;5.28;2.97;;;;;;;31.38;25.72;98779.47;4964854;28;20050;-73
2022/06/13 11:46:45;;;;;;;8.13;3.05;;;;;;;30.84;26.61;98776.94;4980208;28;20046;-73
2022/06/13 11:49:14;;;;;;;9.10;2.78;;;;;;;30.47;27.50;98785.44;4996296;28;20042;-73
2022/06/13 11:51:42;;;;;;;5.47;2.50;;;;;;;30.33;28.18;98769.03;4963338;28;20138;-73
2022/06/13 11:54:19;;;;;;;6.30;2.60;;;;;;;30.23;30.62;98798.56;4979956;28;20038;-72
2022/06/13 11:56:45;;;;;;;5.93;3.03;;;;;;;29.76;33.10;98787.97;4979608;28;20506;-73
2022/06/13 11:59:15;;;;;;;5.20;3.47;;;;;;;29.32;35.52;98781.06;4963861;28;20049;-72
2022/06/13 12:01:40;;;;;;;5.27;3.23;;;;;;;28.94;36.68;98778.69;4963773;28;20089;-72
2022/06/13 12:04:12;;;;;;;5.30;3.63;;;;;;;29.03;37.23;98794.09;4948181;28;20085;-72
2022/06/13 12:06:43;;;;;;;5.40;3.97;;;;;;;28.91;37.38;98792.94;4963915;28;20092;-72
2022/06/13 12:09:21;;;;;;;5.88;3.70;;;;;;;28.93;38.14;98777.06;4980594;28;20085;-73
2022/06/13 12:11:54;;;;;;;13.38;4.45;;;;;;;28.68;39.88;98786.47;4964072;28;20042;-72
2022/06/13 12:14:19;;;;;;;13.05;7.35;;;;;;;28.16;39.89;98777.59;4964355;28;20069;-73
2022/06/13 12:17:07;;;;;;;5.95;4.25;;;;;;;28.16;40.48;98804.91;4948135;28;20504;-72
2022/06/13 12:19:59;;;;;;;7.78;4.30;;;;;;;27.85;41.69;98804.41;4980134;28;20089;-72
2022/06/13 12:22:31;;;;;;;7.50;4.75;;;;;;;27.82;41.92;98808.53;4976267;28;20072;-73